createdAt,value
2022-11-29T00:04:28.113Z,18.7
2022-11-29T00:09:22.943Z,18.7
2022-11-29T00:14:17.654Z,18.7
2022-11-29T00:19:12.433Z,18.6
2022-11-29T00:24:06.618Z,18.7
2022-11-29T00:29:01.273Z,18.6
2022-11-29T00:33:56.198Z,18.6
2022-11-29T00:38:51.049Z,18.5
2022-11-29T00:43:45.655Z,18.6
2022-11-29T00:48:40.119Z,18.5
2022-11-29T00:53:34.792Z,18.5
2022-11-29T00:58:29.226Z,18.5
2022-11-29T01:03:24.148Z,18.4
2022-11-29T01:08:18.823Z,18.4
2022-11-29T01:13:13.556Z,18.4
2022-11-29T01:18:08.378Z,18.4
2022-11-29T01:23:02.967Z,18.4
2022-11-29T01:27:57.637Z,18.4
2022-11-29T01:32:52.277Z,18.3
2022-11-29T01:37:46.829Z,18.4
2022-11-29T01:42:41.413Z,18.3
2022-11-29T01:47:36.264Z,18.3
2022-11-29T01:52:31.062Z,18.3
2022-11-29T01:57:25.907Z,18.3
2022-11-29T02:02:20.477Z,18.3
2022-11-29T02:07:15.133Z,18.1
2022-11-29T02:12:09.492Z,18.2
2022-11-29T02:17:04.037Z,18.2
2022-11-29T02:21:58.747Z,18.1
2022-11-29T02:26:53.383Z,18.1
2022-11-29T02:31:48.130Z,18
2022-11-29T02:36:43.014Z,18.1
2022-11-29T02:41:37.091Z,18.1
2022-11-29T02:46:32.077Z,18.1
2022-11-29T02:51:26.579Z,18.1
2022-11-29T02:56:21.139Z,18.1
2022-11-29T03:01:15.412Z,18
2022-11-29T03:06:09.839Z,17.9
2022-11-29T03:11:04.505Z,18.1
2022-11-29T03:15:58.615Z,17.9
2022-11-29T03:20:53.153Z,17.9
2022-11-29T03:25:47.864Z,18
2022-11-29T03:30:42.564Z,17.8
2022-11-29T03:35:37.318Z,17.9
2022-11-29T03:40:31.940Z,17.8
2022-11-29T03:45:26.160Z,17.8
2022-11-29T03:50:21.042Z,17.9
2022-11-29T03:55:15.631Z,17.7
2022-11-29T04:00:10.243Z,17.9
2022-11-29T04:05:04.744Z,17.7
2022-11-29T04:09:59.356Z,17.8
2022-11-29T04:14:53.959Z,17.7
2022-11-29T04:19:48.353Z,17.8
2022-11-29T04:24:43.437Z,17.7
2022-11-29T04:29:38.056Z,17.8
2022-11-29T04:34:32.451Z,17.6
2022-11-29T04:39:27.384Z,17.7
2022-11-29T04:44:21.307Z,17.7
2022-11-29T04:49:15.191Z,17.6
2022-11-29T04:54:09.925Z,17.6
2022-11-29T04:59:04.703Z,17.7
2022-11-29T05:03:59.390Z,17.5
2022-11-29T05:08:54.240Z,17.6
2022-11-29T05:13:49.037Z,17.7
2022-11-29T05:18:44.070Z,17.9
2022-11-29T05:23:38.939Z,18.3
2022-11-29T05:28:33.815Z,18.5
2022-11-29T05:33:28.927Z,18.7
2022-11-29T05:38:24.028Z,19
2022-11-29T05:43:19.348Z,19.2
2022-11-29T05:48:13.805Z,19.6
2022-11-29T05:53:09.158Z,19.9
2022-11-29T05:58:04.100Z,20.3
2022-11-29T06:02:58.616Z,20.5
2022-11-29T06:07:52.958Z,20.9
2022-11-29T06:12:48.023Z,21
2022-11-29T06:17:42.992Z,21.4
2022-11-29T06:22:37.642Z,21.4
2022-11-29T06:27:32.769Z,21.3
2022-11-29T06:32:27.837Z,21.4
2022-11-29T06:37:22.051Z,21.2
2022-11-29T06:42:16.249Z,21.2
2022-11-29T06:47:11.123Z,21.2
2022-11-29T06:52:05.792Z,21
2022-11-29T06:57:00.669Z,20.8
2022-11-29T07:01:54.952Z,20.5
2022-11-29T07:06:49.383Z,20.4
2022-11-29T07:11:43.429Z,20.2
2022-11-29T07:16:38.140Z,20.2
2022-11-29T07:21:32.781Z,20.2
2022-11-29T07:26:26.785Z,20
2022-11-29T07:31:21.712Z,20
2022-11-29T07:36:15.778Z,19.9
2022-11-29T07:41:10.562Z,19.8
2022-11-29T07:46:05.142Z,19.6
2022-11-29T07:50:59.128Z,19.5
2022-11-29T07:55:53.889Z,19.4
2022-11-29T08:00:48.540Z,19.4
2022-11-29T08:05:42.938Z,19.3
2022-11-29T08:10:37.564Z,19.2
2022-11-29T08:15:32.261Z,19.1
2022-11-29T08:20:27.002Z,19
2022-11-29T08:25:21.901Z,18.9
2022-11-29T08:30:16.749Z,18.8
2022-11-29T08:35:11.225Z,18.9
2022-11-29T08:40:05.960Z,18.7
2022-11-29T08:45:00.717Z,18.8
2022-11-29T08:49:54.678Z,18.7
2022-11-29T08:54:49.413Z,18.7
2022-11-29T08:59:43.974Z,18.6
2022-11-29T09:04:38.845Z,18.5
2022-11-29T09:09:32.978Z,18.4
2022-11-29T09:14:27.754Z,18.3
2022-11-29T09:19:22.207Z,18.3
2022-11-29T09:24:16.918Z,18.3
2022-11-29T09:29:11.479Z,18.3
2022-11-29T09:34:06.087Z,18.3
2022-11-29T09:39:00.689Z,18.3
2022-11-29T09:43:55.442Z,18.2
2022-11-29T09:48:50.209Z,18.1
2022-11-29T09:53:44.985Z,18.1
2022-11-29T09:58:39.584Z,18.1
2022-11-29T10:03:34.523Z,18.1
2022-11-29T10:08:29.527Z,18
2022-11-29T10:13:23.566Z,17.8
2022-11-29T10:18:18.366Z,17.9
2022-11-29T10:23:13.128Z,17.8
2022-11-29T10:28:07.110Z,17.7
2022-11-29T10:33:01.793Z,17.6
2022-11-29T10:38:28.925Z,17.7
2022-11-29T10:42:51.165Z,17.6
2022-11-29T10:47:46.006Z,17.6
2022-11-29T10:52:40.957Z,17.6
2022-11-29T10:57:35.536Z,17.6
2022-11-29T11:02:30.184Z,17.5
2022-11-29T11:07:25.291Z,17.5
2022-11-29T11:12:19.936Z,17.5
2022-11-29T11:17:14.534Z,17.5
2022-11-29T11:22:09.240Z,17.4
2022-11-29T11:27:03.844Z,17.3
2022-11-29T11:31:57.850Z,17.3
2022-11-29T11:36:52.599Z,17.3
2022-11-29T11:41:47.191Z,17.3
2022-11-29T11:46:42.040Z,17.3
2022-11-29T11:51:36.688Z,17.3
2022-11-29T11:56:31.385Z,17.3
2022-11-29T12:01:26.039Z,17.2
2022-11-29T12:06:20.931Z,17.2
2022-11-29T12:11:15.587Z,17.1
2022-11-29T12:16:10.339Z,17.1
2022-11-29T12:21:05.156Z,17.2
2022-11-29T12:26:00.367Z,17.1
2022-11-29T12:30:55.015Z,17.1
2022-11-29T12:35:49.701Z,17
2022-11-29T12:40:44.474Z,17.1
2022-11-29T12:45:38.446Z,17
2022-11-29T12:50:33.059Z,17
2022-11-29T12:55:27.451Z,17
2022-11-29T13:00:22.186Z,16.9
2022-11-29T13:05:17.013Z,16.9
2022-11-29T13:10:16.473Z,16.9
2022-11-29T13:15:06.229Z,16.9
2022-11-29T13:20:01.092Z,16.9
2022-11-29T13:24:55.874Z,16.9
2022-11-29T13:29:50.469Z,16.8
2022-11-29T13:34:45.327Z,16.8
2022-11-29T13:39:39.182Z,16.8
2022-11-29T13:44:33.271Z,16.7
2022-11-29T13:49:27.188Z,16.8
2022-11-29T13:54:20.945Z,16.8
2022-11-29T13:59:15.893Z,16.7
2022-11-29T14:04:10.023Z,16.7
2022-11-29T14:09:18.705Z,16.7
2022-11-29T14:13:59.211Z,16.7
2022-11-29T14:18:54.136Z,16.7
2022-11-29T14:23:48.958Z,16.7
2022-11-29T14:28:43.642Z,16.6
2022-11-29T14:33:38.270Z,16.6
2022-11-29T14:38:32.860Z,16.6
2022-11-29T14:43:27.604Z,16.6
2022-11-29T14:48:22.330Z,16.6
2022-11-29T14:53:16.879Z,16.5
2022-11-29T14:58:11.400Z,16.5
2022-11-29T15:03:06.127Z,16.4
2022-11-29T15:08:00.636Z,16.4
2022-11-29T15:12:55.211Z,16.5
2022-11-29T15:17:50.084Z,16.4
2022-11-29T15:22:44.969Z,16.5
2022-11-29T15:27:40.355Z,16.4
2022-11-29T15:32:33.593Z,16.3
2022-11-29T15:37:28.308Z,16.4
2022-11-29T15:42:24.536Z,16.4
2022-11-29T15:47:18.188Z,16.6
2022-11-29T15:52:17.058Z,16.7
2022-11-29T15:57:08.012Z,16.9
2022-11-29T16:02:02.462Z,17.1
2022-11-29T16:06:57.280Z,17.3
2022-11-29T16:11:52.328Z,17.6
2022-11-29T16:16:47.333Z,17.8
2022-11-29T16:21:42.449Z,18.1
2022-11-29T16:26:37.558Z,18.5
2022-11-29T16:31:32.754Z,18.8
2022-11-29T16:36:28.056Z,19.1
2022-11-29T16:41:23.060Z,19.3
2022-11-29T16:46:18.167Z,19.4
2022-11-29T16:51:12.740Z,19.5
2022-11-29T16:56:07.583Z,19.6
2022-11-29T17:01:02.772Z,19.5
2022-11-29T17:05:57.407Z,19.6
2022-11-29T17:10:52.184Z,19.6
2022-11-29T17:15:46.158Z,19.6
2022-11-29T17:20:40.851Z,19.5
2022-11-29T17:25:35.525Z,19.6
2022-11-29T17:30:30.529Z,19.6
2022-11-29T17:35:24.723Z,19.5
2022-11-29T17:40:19.484Z,19.6
2022-11-29T17:45:14.310Z,19.4
2022-11-29T17:50:09.245Z,19.4
2022-11-29T17:55:03.969Z,19.4
2022-11-29T17:59:58.830Z,19.4
2022-11-29T18:04:53.269Z,19.3
2022-11-29T18:09:48.035Z,19.2
2022-11-29T18:14:42.598Z,19.2
2022-11-29T18:19:37.372Z,19.1
2022-11-29T18:24:31.420Z,19.1
2022-11-29T18:29:26.319Z,19
2022-11-29T18:34:21.254Z,19.1
2022-11-29T18:39:15.720Z,19
2022-11-29T18:44:10.821Z,18.9
2022-11-29T18:49:05.897Z,19
2022-11-29T18:54:00.819Z,19
2022-11-29T18:58:58.316Z,19.1
2022-11-29T19:03:50.718Z,19.4
2022-11-29T19:08:45.946Z,19.5
2022-11-29T19:13:41.149Z,19.7
2022-11-29T19:18:35.387Z,20
2022-11-29T19:23:30.582Z,20.4
2022-11-29T19:28:25.758Z,20.7
2022-11-29T19:33:20.932Z,20.9
2022-11-29T19:38:15.771Z,21
2022-11-29T19:43:10.046Z,21
2022-11-29T19:48:04.830Z,21.2
2022-11-29T19:52:59.700Z,21
2022-11-29T19:57:54.634Z,21.1
2022-11-29T20:02:49.326Z,21.2
2022-11-29T20:07:44.169Z,21.4
2022-11-29T20:12:39.069Z,21.5
2022-11-29T20:17:33.875Z,21.5
2022-11-29T20:22:28.581Z,21.5
2022-11-29T20:27:23.433Z,21.5
2022-11-29T20:32:18.297Z,21.4
2022-11-29T20:37:13.106Z,21.4
2022-11-29T20:42:07.212Z,21.4
2022-11-29T20:47:02.138Z,21.4
2022-11-29T20:51:56.816Z,21.3
2022-11-29T20:56:51.749Z,21.3
2022-11-29T21:01:46.824Z,21.3
2022-11-29T21:06:41.232Z,21.2
2022-11-29T21:11:36.096Z,21.1
2022-11-29T21:16:30.833Z,21
2022-11-29T21:21:25.637Z,21
2022-11-29T21:26:20.692Z,20.9
2022-11-29T21:31:15.385Z,20.7
2022-11-29T21:36:09.455Z,20.6
2022-11-29T21:41:04.388Z,20.5
2022-11-29T21:45:58.892Z,20.4
2022-11-29T21:50:53.718Z,20.3
2022-11-29T21:55:47.634Z,20.3
2022-11-29T22:00:42.250Z,20.3
2022-11-29T22:05:36.821Z,20.1
2022-11-29T22:10:31.429Z,20
2022-11-29T22:15:26.063Z,20
2022-11-29T22:20:20.152Z,19.9
2022-11-29T22:25:15.047Z,19.9
2022-11-29T22:30:09.819Z,19.7
2022-11-29T22:35:04.745Z,19.7
2022-11-29T22:39:59.805Z,19.6
2022-11-29T22:44:53.726Z,19.5
2022-11-29T22:49:48.381Z,19.5
2022-11-29T22:54:43.168Z,19.5
2022-11-29T22:59:37.851Z,19.5
2022-11-29T23:04:32.712Z,19.5
2022-11-29T23:09:27.784Z,19.4
2022-11-29T23:14:22.501Z,19.3
2022-11-29T23:19:17.139Z,19.3
2022-11-29T23:24:12.147Z,19.3
2022-11-29T23:29:07.040Z,19.3
2022-11-29T23:34:00.838Z,19.3
2022-11-29T23:38:55.707Z,19.2
2022-11-29T23:43:50.626Z,19.1
2022-11-29T23:48:45.260Z,19.2
2022-11-29T23:53:40.006Z,19.1
2022-11-29T23:58:34.677Z,19
